Terminal Aerodrome Forecast
Issued by NWS

Home | Current Version | Previous Version | Text Only | Print | Product List | Glossary On
Versions: 1 2 3 4 5 6 7 8 9 10 11 12 13 14 15
000
FTUS42 KMLB 231100
TAFISM
TAF
KISM 231127Z 2312/2412 17002KT P6SM OVC200
     FM231500 20004KT P6SM SCT020 BKN200
     FM231900 16006KT P6SM VCTS SCT035CB BKN120
      TEMPO 2319/2322 3SM TSRA BKN025CB
     FM240200 15003KT P6SM SCT040 BKN140=

USA.gov is the U.S. government's official web portal to all federal, state and local government web resources and services.